createdAt,value
2022-12-23T00:00:18.825Z,21.47
2022-12-23T00:01:23.100Z,21.47
2022-12-23T00:02:27.552Z,21.42
2022-12-23T00:03:32.457Z,21.38
2022-12-23T00:04:37.224Z,21.35
2022-12-23T00:05:41.452Z,21.31
2022-12-23T00:06:45.675Z,21.29
2022-12-23T00:07:49.898Z,21.27
2022-12-23T00:08:54.113Z,21.24
2022-12-23T00:09:58.341Z,21.24
2022-12-23T00:11:02.635Z,21.28
2022-12-23T00:12:06.888Z,21.34
2022-12-23T00:13:11.144Z,21.32
2022-12-23T00:14:21.387Z,21.32
2022-12-23T00:15:26.197Z,21.37
2022-12-23T00:16:30.530Z,21.36
2022-12-23T00:17:34.933Z,21.31
2022-12-23T00:18:39.153Z,21.33
2022-12-23T00:19:44.416Z,21.36
2022-12-23T00:20:48.625Z,21.39
2022-12-23T00:21:52.908Z,21.4
2022-12-23T00:22:57.132Z,21.41
2022-12-23T00:24:01.392Z,21.42
2022-12-23T00:25:05.588Z,21.4
2022-12-23T00:26:09.829Z,21.38
2022-12-23T00:27:14.131Z,21.38
2022-12-23T00:28:18.397Z,21.38
2022-12-23T00:29:22.616Z,21.4
2022-12-23T00:30:26.821Z,21.36
2022-12-23T00:31:31.132Z,21.35
2022-12-23T00:32:35.755Z,21.34
2022-12-23T00:33:40.007Z,21.26
2022-12-23T00:34:44.217Z,21.25
2022-12-23T00:35:48.475Z,21.25
2022-12-23T00:36:52.960Z,21.25
2022-12-23T00:37:57.195Z,21.22
2022-12-23T00:39:01.419Z,21.26
2022-12-23T00:40:06.875Z,21.24
2022-12-23T00:41:11.245Z,21.23
2022-12-23T00:42:15.517Z,21.27
2022-12-23T00:43:19.778Z,21.23
2022-12-23T00:44:24.001Z,21.23
2022-12-23T00:45:28.292Z,21.21
2022-12-23T00:46:32.718Z,21.26
2022-12-23T00:47:37.066Z,21.27
2022-12-23T00:48:41.289Z,21.26
2022-12-23T00:49:45.490Z,21.19
2022-12-23T00:50:49.790Z,21.21
2022-12-23T00:51:54.011Z,21.23
2022-12-23T00:52:58.330Z,21.19
2022-12-23T00:54:02.573Z,21.18
2022-12-23T00:55:06.784Z,21.15
2022-12-23T00:56:11.015Z,21.17
2022-12-23T00:57:15.249Z,21.23
2022-12-23T00:58:19.575Z,21.16
2022-12-23T00:59:23.814Z,21.13
2022-12-23T01:00:28.073Z,21.14
2022-12-23T01:01:32.663Z,21.13
2022-12-23T01:02:37.278Z,21.16
2022-12-23T01:03:41.894Z,21.15
2022-12-23T01:04:46.153Z,21.14
2022-12-23T01:05:50.406Z,21.16
2022-12-23T01:06:54.619Z,21.2
2022-12-23T01:07:58.868Z,21.22
2022-12-23T01:09:03.088Z,21.21
2022-12-23T01:10:07.334Z,21.23
2022-12-23T01:11:11.594Z,21.23
2022-12-23T01:12:15.821Z,21.19
2022-12-23T01:13:20.092Z,21.16
2022-12-23T01:14:24.326Z,21.14
2022-12-23T01:15:28.579Z,21.14
2022-12-23T01:16:32.826Z,21.17
2022-12-23T01:17:37.210Z,21.12
2022-12-23T01:18:41.495Z,21.09
2022-12-23T01:19:45.733Z,21.1
2022-12-23T01:20:49.967Z,21.08
2022-12-23T01:21:54.222Z,21.07
2022-12-23T01:22:58.505Z,21.1
2022-12-23T01:24:02.768Z,21.08
2022-12-23T01:25:07.032Z,21.11
2022-12-23T01:26:11.252Z,21.12
2022-12-23T01:27:15.543Z,21.09
2022-12-23T01:28:19.771Z,21.07
2022-12-23T01:29:24.024Z,21.05
2022-12-23T01:30:28.271Z,21.05
2022-12-23T01:31:32.598Z,21.05
2022-12-23T01:32:37.109Z,21.03
2022-12-23T01:33:41.330Z,21.04
2022-12-23T01:34:45.547Z,21.03
2022-12-23T01:35:49.852Z,21.09
2022-12-23T01:36:54.075Z,21.08
2022-12-23T01:37:58.300Z,21.1
2022-12-23T01:39:02.517Z,21.07
2022-12-23T01:40:06.753Z,21.04
2022-12-23T01:41:10.992Z,21.02
2022-12-23T01:42:15.255Z,21.01
2022-12-23T01:43:19.525Z,21
2022-12-23T01:44:23.748Z,21.01
2022-12-23T01:45:28.059Z,20.98
2022-12-23T01:46:32.698Z,20.98
2022-12-23T01:47:37.145Z,20.98
2022-12-23T01:48:41.404Z,21.01
2022-12-23T01:49:45.639Z,21.03
2022-12-23T01:50:49.889Z,21.02
2022-12-23T01:51:54.138Z,20.99
2022-12-23T01:53:01.665Z,20.98
2022-12-23T01:54:11.439Z,20.98
2022-12-23T01:55:15.684Z,21
2022-12-23T01:56:19.950Z,20.98
2022-12-23T01:57:24.213Z,21.03
2022-12-23T01:58:28.445Z,21
2022-12-23T01:59:32.685Z,20.97
2022-12-23T02:00:36.927Z,20.97
2022-12-23T02:01:41.309Z,20.96
2022-12-23T02:02:46.273Z,20.96
2022-12-23T02:03:50.938Z,20.94
2022-12-23T02:04:55.209Z,20.93
2022-12-23T02:05:59.419Z,20.94
2022-12-23T02:07:03.633Z,20.94
2022-12-23T02:08:07.941Z,20.94
2022-12-23T02:09:12.160Z,20.93
2022-12-23T02:10:16.398Z,20.92
2022-12-23T02:11:20.607Z,20.92
2022-12-23T02:12:24.840Z,20.93
2022-12-23T02:13:29.099Z,20.92
2022-12-23T02:14:33.375Z,20.95
2022-12-23T02:15:37.611Z,20.97
2022-12-23T02:16:41.911Z,20.97
2022-12-23T02:17:46.382Z,20.97
2022-12-23T02:18:50.715Z,20.94
2022-12-23T02:19:54.951Z,20.93
2022-12-23T02:20:59.244Z,20.92
2022-12-23T02:22:03.454Z,20.95
2022-12-23T02:23:08.068Z,20.92
2022-12-23T02:24:12.344Z,20.91
2022-12-23T02:25:16.580Z,20.9
2022-12-23T02:26:20.823Z,20.89
2022-12-23T02:27:25.036Z,20.89
2022-12-23T02:28:29.260Z,20.89
2022-12-23T02:29:33.525Z,20.89
2022-12-23T02:30:37.957Z,20.9
2022-12-23T02:31:42.365Z,20.89
2022-12-23T02:32:46.835Z,20.91
2022-12-23T02:33:51.120Z,20.92
2022-12-23T02:34:56.382Z,20.92
2022-12-23T02:36:00.619Z,20.9
2022-12-23T02:37:04.875Z,20.88
2022-12-23T02:38:09.117Z,20.9
2022-12-23T02:39:13.407Z,20.91
2022-12-23T02:40:17.751Z,20.89
2022-12-23T02:41:24.664Z,20.89
2022-12-23T02:42:28.949Z,20.89
2022-12-23T02:43:33.208Z,20.87
2022-12-23T02:44:37.443Z,20.87
2022-12-23T02:45:41.667Z,20.86
2022-12-23T02:46:46.070Z,20.87
2022-12-23T02:47:50.875Z,20.89
2022-12-23T02:48:55.106Z,20.91
2022-12-23T02:50:01.738Z,20.89
2022-12-23T02:51:05.978Z,20.87
2022-12-23T02:52:10.239Z,20.86
2022-12-23T02:53:14.448Z,20.85
2022-12-23T02:54:18.681Z,20.85
2022-12-23T02:55:22.943Z,20.85
2022-12-23T02:56:27.190Z,20.85
2022-12-23T02:57:31.502Z,20.84
2022-12-23T02:58:35.733Z,20.85
2022-12-23T02:59:39.959Z,20.84
2022-12-23T03:00:44.220Z,20.84
2022-12-23T03:01:48.503Z,20.87
2022-12-23T03:02:53.304Z,20.89
2022-12-23T03:03:57.974Z,20.9
2022-12-23T03:05:02.536Z,20.87
2022-12-23T03:06:06.760Z,20.86
2022-12-23T03:07:15.123Z,20.84
2022-12-23T03:08:22.141Z,20.87
2022-12-23T03:09:26.414Z,20.85
2022-12-23T03:10:30.653Z,20.84
2022-12-23T03:11:35.107Z,20.85
2022-12-23T03:12:39.334Z,20.87
2022-12-23T03:13:43.551Z,20.86
2022-12-23T03:14:47.805Z,20.83
2022-12-23T03:15:52.030Z,20.83
2022-12-23T03:16:56.452Z,20.86
2022-12-23T03:18:00.696Z,20.91
2022-12-23T03:19:04.935Z,20.88
2022-12-23T03:20:09.173Z,20.89
2022-12-23T03:21:13.393Z,20.88
2022-12-23T03:22:17.616Z,20.9
2022-12-23T03:23:21.887Z,20.86
2022-12-23T03:24:26.149Z,20.86
2022-12-23T03:25:30.384Z,20.83
2022-12-23T03:26:34.643Z,20.85
2022-12-23T03:27:38.868Z,20.88
2022-12-23T03:28:43.167Z,20.85
2022-12-23T03:29:47.392Z,20.86
2022-12-23T03:30:51.660Z,20.91
2022-12-23T03:31:56.059Z,20.88
2022-12-23T03:33:00.275Z,20.88
2022-12-23T03:34:04.537Z,20.94
2022-12-23T03:35:08.750Z,20.91
2022-12-23T03:36:13.079Z,20.86
2022-12-23T03:37:17.317Z,20.83
2022-12-23T03:38:21.563Z,20.83
2022-12-23T03:39:25.772Z,20.81
2022-12-23T03:40:29.991Z,20.82
2022-12-23T03:41:34.270Z,20.83
2022-12-23T03:42:38.503Z,20.8
2022-12-23T03:43:50.556Z,20.79
2022-12-23T03:45:19.566Z,20.8
2022-12-23T03:46:44.275Z,20.8
2022-12-23T03:47:48.814Z,20.83
2022-12-23T03:48:53.111Z,20.85
2022-12-23T03:49:57.358Z,20.84
2022-12-23T03:51:01.588Z,20.81
2022-12-23T03:52:05.802Z,20.8
2022-12-23T03:53:10.045Z,20.78
2022-12-23T03:54:15.342Z,20.78
2022-12-23T03:55:19.601Z,20.77
2022-12-23T03:56:23.817Z,20.77
2022-12-23T03:57:28.049Z,20.81
2022-12-23T03:58:32.274Z,20.83
2022-12-23T03:59:36.503Z,20.83
2022-12-23T04:00:40.712Z,20.81
2022-12-23T04:01:45.127Z,20.82
2022-12-23T04:02:50.940Z,20.8
2022-12-23T04:03:56.012Z,20.82
2022-12-23T04:05:00.436Z,20.78
2022-12-23T04:06:04.694Z,20.81
2022-12-23T04:07:08.944Z,20.79
2022-12-23T04:08:13.162Z,20.77
2022-12-23T04:09:21.838Z,20.79
2022-12-23T04:10:26.452Z,20.76
2022-12-23T04:11:30.713Z,20.77
2022-12-23T04:12:34.962Z,20.79
2022-12-23T04:13:39.205Z,20.76
2022-12-23T04:14:43.483Z,20.75
2022-12-23T04:15:47.763Z,20.77
2022-12-23T04:16:52.147Z,20.75
2022-12-23T04:17:56.418Z,20.73
2022-12-23T04:19:00.683Z,20.74
2022-12-23T04:20:04.896Z,20.74
2022-12-23T04:21:09.182Z,20.73
2022-12-23T04:22:13.547Z,20.73
2022-12-23T04:23:17.884Z,20.76
2022-12-23T04:24:22.098Z,20.76
2022-12-23T04:25:26.292Z,20.75
2022-12-23T04:26:30.525Z,20.74
2022-12-23T04:27:34.765Z,20.76
2022-12-23T04:28:38.963Z,20.73
2022-12-23T04:29:43.182Z,20.71
2022-12-23T04:30:47.396Z,20.73
2022-12-23T04:31:51.839Z,20.73
2022-12-23T04:32:56.367Z,20.73
2022-12-23T04:34:00.578Z,20.71
2022-12-23T04:35:04.815Z,20.71
2022-12-23T04:36:09.043Z,20.74
2022-12-23T04:37:13.311Z,20.72
2022-12-23T04:38:17.512Z,20.71
2022-12-23T04:39:21.739Z,20.7
2022-12-23T04:40:25.973Z,20.72
2022-12-23T04:41:30.253Z,20.73
2022-12-23T04:42:34.491Z,20.72
2022-12-23T04:43:38.702Z,20.7
2022-12-23T04:44:43.325Z,20.69
2022-12-23T04:45:47.581Z,20.73
2022-12-23T04:46:51.887Z,20.75
2022-12-23T04:47:56.264Z,20.77
2022-12-23T04:49:00.519Z,20.78
2022-12-23T04:50:04.772Z,20.79
2022-12-23T04:51:09.026Z,20.79
2022-12-23T04:52:13.293Z,20.78
2022-12-23T04:53:17.535Z,20.78
2022-12-23T04:54:21.747Z,20.81
2022-12-23T04:55:25.943Z,20.8
2022-12-23T04:56:30.170Z,20.77
2022-12-23T04:57:34.467Z,20.73
2022-12-23T04:58:38.682Z,20.75
2022-12-23T04:59:42.912Z,20.75
2022-12-23T05:00:47.220Z,20.71
2022-12-23T05:01:51.905Z,20.71
2022-12-23T05:02:56.810Z,20.73
2022-12-23T05:04:01.565Z,20.7
2022-12-23T05:05:05.778Z,20.7
2022-12-23T05:06:10.013Z,20.75
2022-12-23T05:07:14.240Z,20.81
2022-12-23T05:08:18.493Z,20.89
2022-12-23T05:09:22.757Z,20.99
2022-12-23T05:10:27.003Z,21.11
2022-12-23T05:11:31.222Z,21.24
2022-12-23T05:12:44.598Z,21.38
2022-12-23T05:13:48.833Z,21.48
2022-12-23T05:14:53.062Z,21.57
2022-12-23T05:15:57.341Z,21.67
2022-12-23T05:17:07.038Z,21.74
2022-12-23T05:18:11.595Z,21.8
2022-12-23T05:19:15.841Z,21.84
2022-12-23T05:20:20.071Z,21.87
2022-12-23T05:21:24.307Z,21.91
2022-12-23T05:22:28.579Z,21.93
2022-12-23T05:23:32.922Z,21.97
2022-12-23T05:24:37.188Z,21.99
2022-12-23T05:25:41.444Z,22
2022-12-23T05:26:47.921Z,22.03
2022-12-23T05:28:02.480Z,22.03
2022-12-23T05:29:06.690Z,22.07
2022-12-23T05:30:10.947Z,22.08
2022-12-23T05:31:15.205Z,22.09
2022-12-23T05:32:19.627Z,22.09
2022-12-23T05:33:23.930Z,22.12
2022-12-23T05:34:30.606Z,22.12
2022-12-23T05:35:34.865Z,22.13
2022-12-23T05:36:39.068Z,22.17
2022-12-23T05:37:43.331Z,22.18
2022-12-23T05:38:47.592Z,22.19
2022-12-23T05:39:51.855Z,22.21
2022-12-23T05:40:56.084Z,22.25
2022-12-23T05:42:00.333Z,22.26
2022-12-23T05:43:04.624Z,22.29
2022-12-23T05:44:08.848Z,22.31
2022-12-23T05:45:13.110Z,22.34
2022-12-23T05:46:22.722Z,22.36
2022-12-23T05:47:31.073Z,22.36
2022-12-23T05:48:35.342Z,22.37
2022-12-23T05:49:39.574Z,22.37
2022-12-23T05:50:43.806Z,22.4
2022-12-23T05:51:48.174Z,22.38
2022-12-23T05:52:52.406Z,22.38
2022-12-23T05:53:56.633Z,22.4
2022-12-23T05:55:00.901Z,22.43
2022-12-23T05:56:05.141Z,22.42
2022-12-23T05:57:09.372Z,22.41
2022-12-23T05:58:13.605Z,22.41
2022-12-23T05:59:17.842Z,22.41
2022-12-23T06:00:22.046Z,22.42
2022-12-23T06:01:26.399Z,22.43
2022-12-23T06:02:31.097Z,22.43
2022-12-23T06:03:36.093Z,22.44
2022-12-23T06:04:40.934Z,22.44
2022-12-23T06:05:45.151Z,22.45
2022-12-23T06:06:49.392Z,22.44
2022-12-23T06:07:53.637Z,22.44
2022-12-23T06:08:59.920Z,22.47
2022-12-23T06:10:04.462Z,22.48
2022-12-23T06:11:08.688Z,22.49
2022-12-23T06:12:12.925Z,22.47
2022-12-23T06:13:17.159Z,22.47
2022-12-23T06:14:25.269Z,22.47
2022-12-23T06:15:32.795Z,22.46
2022-12-23T06:16:37.119Z,22.46
2022-12-23T06:17:41.579Z,22.46
2022-12-23T06:18:45.865Z,22.45
2022-12-23T06:19:50.129Z,22.44
2022-12-23T06:20:55.371Z,22.42
2022-12-23T06:21:59.586Z,22.39
2022-12-23T06:23:03.866Z,22.37
2022-12-23T06:24:08.094Z,22.34
2022-12-23T06:25:12.329Z,22.32
2022-12-23T06:26:16.581Z,22.31
2022-12-23T06:27:20.796Z,22.29
2022-12-23T06:28:25.020Z,22.26
2022-12-23T06:29:29.273Z,22.24
2022-12-23T06:30:33.580Z,22.21
2022-12-23T06:31:37.876Z,22.19
2022-12-23T06:32:42.298Z,22.17
2022-12-23T06:33:46.534Z,22.15
2022-12-23T06:34:50.817Z,22.11
2022-12-23T06:35:55.244Z,22.1
2022-12-23T06:36:59.600Z,22.08
2022-12-23T06:38:06.375Z,22.06
2022-12-23T06:39:15.695Z,22.03
2022-12-23T06:40:19.959Z,22.03
2022-12-23T06:41:24.196Z,22.01
2022-12-23T06:42:28.425Z,22
2022-12-23T06:43:32.655Z,22.02
2022-12-23T06:44:36.876Z,22.04
2022-12-23T06:45:41.144Z,22.08
2022-12-23T06:46:45.586Z,22.1
2022-12-23T06:47:49.820Z,22.13
2022-12-23T06:48:54.029Z,22.15
2022-12-23T06:49:58.263Z,22.2
2022-12-23T06:51:02.643Z,22.24
2022-12-23T06:52:09.220Z,22.26
2022-12-23T06:53:13.445Z,22.29
2022-12-23T06:54:17.667Z,22.3
2022-12-23T06:55:21.895Z,22.32
2022-12-23T06:56:26.127Z,22.32
2022-12-23T06:57:30.352Z,22.31
2022-12-23T06:58:34.570Z,22.3
2022-12-23T06:59:38.805Z,22.31
2022-12-23T07:00:43.042Z,22.29
2022-12-23T07:01:47.345Z,22.25
2022-12-23T07:02:52.018Z,22.24
2022-12-23T07:03:56.909Z,22.22
2022-12-23T07:05:01.126Z,22.21
2022-12-23T07:06:07.422Z,22.19
2022-12-23T07:07:11.679Z,22.17
2022-12-23T07:08:15.906Z,22.15
2022-12-23T07:09:20.120Z,22.15
2022-12-23T07:10:24.335Z,22.13
2022-12-23T07:11:28.570Z,22.11
2022-12-23T07:12:32.769Z,22.09
2022-12-23T07:13:36.993Z,22.08
2022-12-23T07:14:41.228Z,22.05
2022-12-23T07:15:45.549Z,22.04
2022-12-23T07:16:50.122Z,22.02
2022-12-23T07:17:54.597Z,22.01
2022-12-23T07:18:58.836Z,21.99
2022-12-23T07:20:03.028Z,21.96
2022-12-23T07:21:13.464Z,21.96
2022-12-23T07:22:32.312Z,21.94
2022-12-23T07:23:36.587Z,21.94
2022-12-23T07:24:40.817Z,21.94
2022-12-23T07:25:45.062Z,21.93
2022-12-23T07:26:49.337Z,21.95
2022-12-23T07:27:53.543Z,21.96
2022-12-23T07:28:57.743Z,21.97
2022-12-23T07:30:01.979Z,21.99
2022-12-23T07:31:06.302Z,22.04
2022-12-23T07:32:10.800Z,22.09
2022-12-23T07:33:15.222Z,22.14
2022-12-23T07:34:19.451Z,22.23
2022-12-23T07:35:23.697Z,22.28
2022-12-23T07:36:27.908Z,22.32
2022-12-23T07:37:32.193Z,22.35
2022-12-23T07:38:36.436Z,22.36
2022-12-23T07:39:40.664Z,22.35
2022-12-23T07:40:44.914Z,22.34
2022-12-23T07:41:52.739Z,22.34
2022-12-23T07:43:58.332Z,22.32
2022-12-23T07:45:02.601Z,22.33
2022-12-23T07:46:06.965Z,22.3
2022-12-23T07:47:11.384Z,22.3
2022-12-23T07:48:15.682Z,22.27
2022-12-23T07:49:19.914Z,22.26
2022-12-23T07:50:24.124Z,22.25
2022-12-23T07:51:28.386Z,22.24
2022-12-23T07:52:32.616Z,22.23
2022-12-23T07:53:36.904Z,22.22
2022-12-23T07:54:41.133Z,22.2
2022-12-23T07:55:45.361Z,22.19
2022-12-23T07:56:59.183Z,22.19
2022-12-23T07:58:03.402Z,22.19
2022-12-23T07:59:07.634Z,22.18
2022-12-23T08:00:11.867Z,22.17
2022-12-23T08:01:16.270Z,22.15
2022-12-23T08:02:20.977Z,22.12
2022-12-23T08:03:25.922Z,22.11
2022-12-23T08:04:30.393Z,22.1
2022-12-23T08:05:34.849Z,22.1
2022-12-23T08:06:39.060Z,22.07
2022-12-23T08:07:43.273Z,22.06
2022-12-23T08:08:47.498Z,22.05
2022-12-23T08:09:51.785Z,22.03
2022-12-23T08:10:56.013Z,22.02
2022-12-23T08:12:00.216Z,22
2022-12-23T08:13:04.700Z,22
2022-12-23T08:14:08.936Z,21.97
2022-12-23T08:15:15.477Z,21.97
2022-12-23T08:16:19.755Z,21.97
2022-12-23T08:17:24.423Z,21.95
2022-12-23T08:18:28.774Z,21.94
2022-12-23T08:19:32.997Z,21.91
2022-12-23T08:20:37.252Z,21.91
2022-12-23T08:21:41.458Z,21.94
2022-12-23T08:22:45.713Z,22.04
2022-12-23T08:23:49.959Z,22.03
2022-12-23T08:24:54.239Z,22.01
2022-12-23T08:25:58.443Z,21.95
2022-12-23T08:27:02.659Z,21.89
2022-12-23T08:28:06.862Z,21.85
2022-12-23T08:29:11.073Z,21.8
2022-12-23T08:30:15.300Z,21.8
2022-12-23T08:31:19.640Z,21.8
2022-12-23T08:32:26.771Z,21.82
2022-12-23T08:33:30.986Z,21.85
2022-12-23T08:34:35.343Z,21.87
2022-12-23T08:35:39.677Z,21.91
2022-12-23T08:36:43.926Z,21.98
2022-12-23T08:37:48.162Z,22.05
2022-12-23T08:38:52.417Z,22.11
2022-12-23T08:39:56.972Z,22.18
2022-12-23T08:41:01.216Z,22.23
2022-12-23T08:42:05.779Z,22.26
2022-12-23T08:43:10.066Z,22.31
2022-12-23T08:44:14.582Z,22.31
2022-12-23T08:45:18.878Z,22.32
2022-12-23T08:46:23.217Z,22.31
2022-12-23T08:47:27.678Z,22.42
2022-12-23T08:48:31.957Z,22.43
2022-12-23T08:49:36.208Z,22.39
2022-12-23T08:50:40.427Z,22.34
2022-12-23T08:51:44.662Z,22.32
2022-12-23T08:52:48.898Z,22.29
2022-12-23T08:53:58.033Z,22.26
2022-12-23T08:55:04.960Z,22.23
2022-12-23T08:56:09.167Z,22.21
2022-12-23T08:57:13.373Z,22.19
2022-12-23T08:58:17.583Z,22.17
2022-12-23T08:59:21.807Z,22.15
2022-12-23T09:00:26.062Z,22.14
2022-12-23T09:01:30.493Z,22.13
2022-12-23T09:02:35.550Z,22.1
2022-12-23T09:03:40.447Z,22.08
2022-12-23T09:04:44.865Z,22.06
2022-12-23T09:05:49.096Z,22.04
2022-12-23T09:06:53.473Z,22.03
2022-12-23T09:07:57.731Z,22.01
2022-12-23T09:09:01.966Z,22
2022-12-23T09:10:06.199Z,21.99
2022-12-23T09:11:10.410Z,21.98
2022-12-23T09:12:14.639Z,21.96
2022-12-23T09:13:26.497Z,21.94
2022-12-23T09:14:39.160Z,21.92
2022-12-23T09:15:43.438Z,21.9
2022-12-23T09:16:47.950Z,21.89
2022-12-23T09:17:52.199Z,21.86
2022-12-23T09:18:57.449Z,21.86
2022-12-23T09:20:01.782Z,21.84
2022-12-23T09:21:06.000Z,21.81
2022-12-23T09:22:11.241Z,21.84
2022-12-23T09:23:15.493Z,21.83
2022-12-23T09:24:19.703Z,21.82
2022-12-23T09:25:23.953Z,21.83
2022-12-23T09:26:28.187Z,21.81
2022-12-23T09:27:32.465Z,21.8
2022-12-23T09:28:36.706Z,21.76
2022-12-23T09:29:41.191Z,21.75
2022-12-23T09:30:45.450Z,21.72
2022-12-23T09:31:49.893Z,21.74
2022-12-23T09:32:54.424Z,21.71
2022-12-23T09:33:58.724Z,21.7
2022-12-23T09:35:02.986Z,21.7
2022-12-23T09:36:07.226Z,21.69
2022-12-23T09:37:11.564Z,21.68
2022-12-23T09:38:15.806Z,21.68
2022-12-23T09:39:20.074Z,21.67
2022-12-23T09:40:24.292Z,21.67
2022-12-23T09:41:28.555Z,21.67
2022-12-23T09:42:32.842Z,21.67
2022-12-23T09:43:37.106Z,21.68
2022-12-23T09:44:41.420Z,21.69
2022-12-23T09:45:45.665Z,21.69
2022-12-23T09:46:50.024Z,21.68
2022-12-23T09:47:54.524Z,21.69
2022-12-23T09:48:58.746Z,21.67
2022-12-23T09:50:03.017Z,21.68
2022-12-23T09:51:07.255Z,21.71
2022-12-23T09:52:11.515Z,21.77
2022-12-23T09:53:15.735Z,21.84
2022-12-23T09:54:19.988Z,21.93
2022-12-23T09:55:24.261Z,22.03
2022-12-23T09:56:28.488Z,22.1
2022-12-23T09:57:32.712Z,22.16
2022-12-23T09:58:36.968Z,22.22
2022-12-23T09:59:41.183Z,22.25
2022-12-23T10:00:45.537Z,22.26
2022-12-23T10:01:49.877Z,22.26
2022-12-23T10:02:54.704Z,22.26
2022-12-23T10:03:59.743Z,22.25
2022-12-23T10:05:04.286Z,22.25
2022-12-23T10:06:08.556Z,22.23
2022-12-23T10:07:12.798Z,22.21
2022-12-23T10:08:17.045Z,22.19
2022-12-23T10:09:21.252Z,22.19
2022-12-23T10:10:27.783Z,22.17
2022-12-23T10:11:32.043Z,22.16
2022-12-23T10:12:39.986Z,22.13
2022-12-23T10:13:44.573Z,22.11
2022-12-23T10:14:48.799Z,22.1
2022-12-23T10:15:53.138Z,22.09
2022-12-23T10:16:57.603Z,22.07
2022-12-23T10:18:01.823Z,22.04
2022-12-23T10:19:06.049Z,22.03
2022-12-23T10:20:10.331Z,22.02
2022-12-23T10:21:14.546Z,22
2022-12-23T10:22:18.832Z,21.99
2022-12-23T10:23:23.109Z,21.96
2022-12-23T10:24:27.315Z,21.96
2022-12-23T10:25:31.556Z,21.94
2022-12-23T10:26:35.791Z,21.94
2022-12-23T10:27:40.059Z,21.92
2022-12-23T10:28:44.330Z,21.91
2022-12-23T10:29:48.560Z,21.9
2022-12-23T10:31:23.680Z,21.89
2022-12-23T10:32:44.346Z,21.87
2022-12-23T10:33:48.912Z,21.86
2022-12-23T10:34:53.156Z,21.85
2022-12-23T10:35:57.603Z,21.86
2022-12-23T10:37:01.982Z,21.86
2022-12-23T10:38:06.554Z,21.85
2022-12-23T10:39:10.838Z,21.83
2022-12-23T10:40:15.154Z,21.82
2022-12-23T10:41:19.554Z,21.81
2022-12-23T10:42:23.812Z,21.79
2022-12-23T10:43:28.031Z,21.78
2022-12-23T10:44:32.511Z,21.76
2022-12-23T10:45:36.731Z,21.74
2022-12-23T10:46:41.894Z,21.73
2022-12-23T10:47:46.330Z,21.69
2022-12-23T10:48:51.272Z,21.69
2022-12-23T10:49:55.826Z,21.67
2022-12-23T10:51:00.123Z,21.7
2022-12-23T10:52:04.407Z,21.69
2022-12-23T10:53:08.648Z,21.66
2022-12-23T10:54:12.876Z,21.69
2022-12-23T10:55:17.131Z,21.63
2022-12-23T10:56:21.377Z,21.6
2022-12-23T10:57:28.735Z,21.6
2022-12-23T10:58:32.963Z,21.61
2022-12-23T10:59:37.427Z,21.59
2022-12-23T11:00:41.696Z,21.58
2022-12-23T11:01:46.277Z,21.56
2022-12-23T11:02:51.686Z,21.57
2022-12-23T11:03:59.743Z,21.6
2022-12-23T11:05:03.990Z,21.58
2022-12-23T11:06:08.255Z,21.59
2022-12-23T11:07:42.641Z,21.57
2022-12-23T11:08:49.362Z,21.55
2022-12-23T11:09:53.609Z,21.53
2022-12-23T11:10:57.826Z,21.55
2022-12-23T11:12:02.091Z,21.54
2022-12-23T11:13:06.631Z,21.57
2022-12-23T11:14:10.882Z,21.62
2022-12-23T11:15:15.129Z,21.66
2022-12-23T11:16:19.455Z,21.72
2022-12-23T11:17:23.904Z,21.78
2022-12-23T11:18:28.244Z,21.84
2022-12-23T11:19:32.466Z,21.89
2022-12-23T11:20:36.702Z,21.93
2022-12-23T11:21:40.923Z,21.95
2022-12-23T11:22:45.412Z,21.98
2022-12-23T11:23:50.265Z,21.99
2022-12-23T11:24:54.828Z,22
2022-12-23T11:25:59.087Z,22
2022-12-23T11:27:03.418Z,22
2022-12-23T11:28:07.742Z,22.01
2022-12-23T11:29:11.994Z,22.01
2022-12-23T11:30:16.196Z,22
2022-12-23T11:31:20.506Z,22
2022-12-23T11:32:24.935Z,22
2022-12-23T11:33:31.409Z,21.99
2022-12-23T11:34:35.650Z,21.99
2022-12-23T11:35:40.865Z,21.99
2022-12-23T11:36:48.913Z,21.98
2022-12-23T11:38:07.782Z,21.99
2022-12-23T11:39:12.032Z,21.98
2022-12-23T11:40:16.269Z,22
2022-12-23T11:41:20.479Z,21.97
2022-12-23T11:42:24.709Z,21.95
2022-12-23T11:43:28.972Z,21.93
2022-12-23T11:44:33.244Z,21.92
2022-12-23T11:45:37.531Z,21.9
2022-12-23T11:46:41.953Z,21.89
2022-12-23T11:47:46.204Z,21.88
2022-12-23T11:48:54.697Z,21.85
2022-12-23T11:49:59.143Z,21.86
2022-12-23T11:51:03.453Z,21.86
2022-12-23T11:52:07.887Z,21.86
2022-12-23T11:53:12.134Z,21.87
2022-12-23T11:54:16.537Z,21.86
2022-12-23T11:55:20.803Z,21.86
2022-12-23T11:56:25.085Z,21.87
2022-12-23T11:57:29.649Z,21.87
2022-12-23T11:58:33.882Z,21.88
2022-12-23T11:59:38.106Z,21.9
2022-12-23T12:00:42.344Z,21.9
2022-12-23T12:01:46.721Z,21.9
2022-12-23T12:02:51.607Z,21.89
2022-12-23T12:03:57.484Z,21.9
2022-12-23T12:05:01.939Z,21.88
2022-12-23T12:06:06.179Z,21.87
2022-12-23T12:07:10.470Z,21.87
2022-12-23T12:08:14.739Z,21.87
2022-12-23T12:09:19.020Z,21.86
2022-12-23T12:10:23.283Z,21.84
2022-12-23T12:11:27.545Z,21.82
2022-12-23T12:12:31.777Z,21.82
2022-12-23T12:13:36.003Z,21.82
2022-12-23T12:14:41.028Z,21.81
2022-12-23T12:15:45.679Z,21.81
2022-12-23T12:16:50.496Z,21.8
2022-12-23T12:17:55.808Z,21.79
2022-12-23T12:19:00.026Z,21.8
2022-12-23T12:20:04.259Z,21.78
2022-12-23T12:21:08.520Z,21.74
2022-12-23T12:22:12.748Z,21.72
2022-12-23T12:23:17.092Z,21.71
2022-12-23T12:24:21.331Z,21.7
2022-12-23T12:25:25.545Z,21.69
2022-12-23T12:26:29.794Z,21.67
2022-12-23T12:27:34.051Z,21.66
2022-12-23T12:28:39.117Z,21.64
2022-12-23T12:29:43.361Z,21.64
2022-12-23T12:30:47.666Z,21.64
2022-12-23T12:31:52.479Z,21.65
2022-12-23T12:32:56.697Z,21.65
2022-12-23T12:34:00.966Z,21.66
2022-12-23T12:35:05.163Z,21.72
2022-12-23T12:36:09.480Z,21.8
2022-12-23T12:37:13.843Z,21.86
2022-12-23T12:38:18.075Z,21.93
2022-12-23T12:39:22.598Z,22.02
2022-12-23T12:40:29.797Z,22.08
2022-12-23T12:41:34.068Z,22.12
2022-12-23T12:42:38.293Z,22.14
2022-12-23T12:43:42.568Z,22.17
2022-12-23T12:44:46.842Z,22.19
2022-12-23T12:45:51.258Z,22.18
2022-12-23T12:46:55.896Z,22.18
2022-12-23T12:48:07.140Z,22.18
2022-12-23T12:49:21.556Z,22.18
2022-12-23T12:50:28.986Z,22.16
2022-12-23T12:51:33.368Z,22.14
2022-12-23T12:52:37.592Z,22.1
2022-12-23T12:53:41.832Z,22.08
2022-12-23T12:54:46.068Z,22.07
2022-12-23T12:55:51.327Z,22.04
2022-12-23T12:56:56.691Z,22.04
2022-12-23T12:58:00.924Z,22.03
2022-12-23T12:59:05.194Z,22.01
2022-12-23T13:00:09.437Z,21.98
2022-12-23T13:01:13.782Z,21.96
2022-12-23T13:02:18.255Z,21.94
2022-12-23T13:03:22.635Z,21.93
2022-12-23T13:04:27.143Z,21.94
2022-12-23T13:05:31.629Z,21.93
2022-12-23T13:06:35.871Z,21.91
2022-12-23T13:07:40.985Z,21.91
2022-12-23T13:08:45.587Z,21.89
2022-12-23T13:09:49.804Z,21.88
2022-12-23T13:10:54.024Z,21.87
2022-12-23T13:11:58.245Z,21.85
2022-12-23T13:13:02.457Z,21.84
2022-12-23T13:14:06.687Z,21.82
2022-12-23T13:15:11.042Z,21.79
2022-12-23T13:16:15.308Z,21.79
2022-12-23T13:17:19.932Z,21.77
2022-12-23T13:18:24.287Z,21.76
2022-12-23T13:19:28.559Z,21.75
2022-12-23T13:20:32.840Z,21.73
2022-12-23T13:21:37.057Z,21.71
2022-12-23T13:22:41.367Z,21.69
2022-12-23T13:23:45.695Z,21.67
2022-12-23T13:24:50.007Z,21.66
2022-12-23T13:25:54.849Z,21.63
2022-12-23T13:26:59.128Z,21.66
2022-12-23T13:28:03.382Z,21.67
2022-12-23T13:29:07.602Z,21.7
2022-12-23T13:30:11.838Z,21.7
2022-12-23T13:31:18.331Z,21.68
2022-12-23T13:32:22.790Z,21.68
2022-12-23T13:33:27.049Z,21.68
2022-12-23T13:34:31.258Z,21.71
2022-12-23T13:35:35.491Z,21.71
2022-12-23T13:36:40.311Z,21.72
2022-12-23T13:37:45.889Z,21.69
2022-12-23T13:38:50.153Z,21.69
2022-12-23T13:39:54.907Z,21.7
2022-12-23T13:40:59.139Z,21.71
2022-12-23T13:42:05.903Z,21.73
2022-12-23T13:43:10.372Z,21.71
2022-12-23T13:44:14.626Z,21.68
2022-12-23T13:45:18.876Z,21.68
2022-12-23T13:46:23.236Z,21.71
2022-12-23T13:47:27.766Z,21.74
2022-12-23T13:48:31.994Z,21.75
2022-12-23T13:49:36.223Z,21.78
2022-12-23T13:50:41.229Z,21.83
2022-12-23T13:51:45.585Z,21.89
2022-12-23T13:52:50.583Z,21.96
2022-12-23T13:53:58.011Z,22.04
2022-12-23T13:55:08.258Z,22.1
2022-12-23T13:56:12.534Z,22.15
2022-12-23T13:57:16.766Z,22.2
2022-12-23T13:58:21.004Z,22.22
2022-12-23T13:59:25.221Z,22.26